Terminal Aerodrome Forecast
Issued by NWS

Home | Current Version | Previous Version | Text Only | Print | Product List | Glossary On
Versions: 1 2 3 4 5 6 7 8 9 10 11 12 13 14 15 16 17 18 19 20 21 22 23 24 25 26 27 28 29
000
FTUS42 KJAX 020638 AAA
TAFCRG
TAF AMD
KCRG 020638Z 0207/0306 35003KT 1/2SM -DZ FG VV002
     FM021400 05002KT 1SM BR OVC003
     FM021430 VRB02KT 3SM BR BKN005
     FM021600 02004KT P6SM BKN018
     FM021900 04005KT P6SM BKN035=

USA.gov is the U.S. government's official web portal to all federal, state and local government web resources and services.